createdAt,value
2018-05-04T00:01:52.837Z,6.27
2018-05-04T00:04:20.291Z,5.07
2018-05-04T00:06:48.492Z,5.57
2018-05-04T00:09:15.941Z,5.03
2018-05-04T00:11:43.382Z,6.67
2018-05-04T00:14:10.838Z,5.93
2018-05-04T00:16:38.290Z,7.53
2018-05-04T00:19:06.518Z,4.33
2018-05-04T00:21:33.964Z,8.23
2018-05-04T00:24:01.502Z,4.97
2018-05-04T00:26:28.939Z,6.67
2018-05-04T00:28:56.388Z,6.40
2018-05-04T00:31:24.641Z,7.13
2018-05-04T00:33:52.082Z,5.27
2018-05-04T00:36:19.603Z,6.50
2018-05-04T00:38:47.070Z,6.77
2018-05-04T00:41:14.534Z,4.80
2018-05-04T00:43:42.013Z,7.57
2018-05-04T00:46:09.452Z,6.23
2018-05-04T00:48:36.929Z,7.47
2018-05-04T00:51:04.446Z,7.30
2018-05-04T00:53:31.891Z,8.33
2018-05-04T00:55:59.352Z,6.80
2018-05-04T00:58:26.820Z,6.57
2018-05-04T01:00:54.264Z,7.80
2018-05-04T01:03:21.704Z,4.40
2018-05-04T01:05:49.963Z,6.87
2018-05-04T01:08:17.398Z,6.77
2018-05-04T01:10:44.860Z,9.07
2018-05-04T01:13:12.296Z,10.30
2018-05-04T01:15:39.760Z,5.73
2018-05-04T01:18:07.228Z,8.73
2018-05-04T01:20:34.671Z,10.27
2018-05-04T01:23:02.120Z,8.27
2018-05-04T01:25:29.600Z,10.23
2018-05-04T01:27:57.071Z,7.20
2018-05-04T01:30:24.532Z,9.80
2018-05-04T01:32:51.991Z,6.87
2018-05-04T01:35:20.255Z,5.97
2018-05-04T01:37:47.705Z,7.27
2018-05-04T01:40:16.212Z,7.30
2018-05-04T01:42:44.519Z,21.37
2018-05-04T01:45:11.996Z,13.67
2018-05-04T01:47:39.433Z,8.07
2018-05-04T01:50:06.871Z,10.57
2018-05-04T01:52:34.343Z,10.07
2018-05-04T01:55:01.803Z,9.13
2018-05-04T01:57:29.271Z,8.90
2018-05-04T01:59:56.706Z,7.53
2018-05-04T02:02:24.173Z,8.30
2018-05-04T02:04:51.628Z,9.07
2018-05-04T02:07:19.071Z,4.90
2018-05-04T02:09:46.527Z,5.70
2018-05-04T02:12:13.972Z,6.17
2018-05-04T02:14:42.200Z,5.07
2018-05-04T02:17:09.835Z,12.43
2018-05-04T02:19:37.272Z,4.90
2018-05-04T02:22:04.710Z,5.50
2018-05-04T02:24:32.912Z,6.63
2018-05-04T02:27:01.031Z,7.90
2018-05-04T02:29:28.493Z,7.40
2018-05-04T02:31:55.954Z,9.50
2018-05-04T02:34:23.421Z,11.57
2018-05-04T02:36:50.891Z,9.57
2018-05-04T02:39:19.096Z,8.17
2018-05-04T02:41:46.561Z,7.67
2018-05-04T02:44:14.007Z,7.73
2018-05-04T02:46:41.467Z,7.40
2018-05-04T02:49:08.935Z,8.67
2018-05-04T02:51:36.413Z,12.57
2018-05-04T02:54:03.872Z,8.60
2018-05-04T02:56:31.312Z,6.63
2018-05-04T02:58:58.749Z,7.97
2018-05-04T03:01:26.230Z,9.03
2018-05-04T03:03:53.664Z,10.00
2018-05-04T03:06:21.168Z,19.83
2018-05-04T03:08:48.624Z,28.43
2018-05-04T03:11:16.092Z,20.03
2018-05-04T03:13:43.594Z,17.83
2018-05-04T03:16:11.028Z,10.73
2018-05-04T03:18:38.563Z,10.30
2018-05-04T03:21:05.976Z,10.63
2018-05-04T03:23:33.424Z,8.27
2018-05-04T03:26:00.889Z,7.57
2018-05-04T03:28:28.352Z,6.57
2018-05-04T03:30:55.819Z,8.53
2018-05-04T03:33:23.261Z,10.80
2018-05-04T03:35:50.703Z,11.07
2018-05-04T03:38:18.152Z,8.70
2018-05-04T03:40:46.412Z,9.83
2018-05-04T03:43:14.627Z,11.17
2018-05-04T03:45:42.066Z,10.80
2018-05-04T03:48:09.540Z,10.50
2018-05-04T03:50:37.008Z,11.80
2018-05-04T03:53:04.474Z,10.03
2018-05-04T03:55:31.933Z,8.20
2018-05-04T03:58:11.147Z,10.77
2018-05-04T04:00:50.467Z,12.57
2018-05-04T04:06:23.480Z,11.87
2018-05-04T04:08:50.919Z,14.17
2018-05-04T04:11:18.383Z,12.40
2018-05-04T04:13:45.848Z,14.43
2018-05-04T04:16:13.289Z,13.47
2018-05-04T04:18:40.733Z,19.73
2018-05-04T04:21:08.220Z,14.60
2018-05-04T04:23:35.693Z,13.23
2018-05-04T04:26:03.161Z,13.20
2018-05-04T04:28:30.635Z,14.83
2018-05-04T04:30:58.100Z,19.80
2018-05-04T04:33:26.313Z,13.33
2018-05-04T04:35:53.787Z,15.73
2018-05-04T04:38:21.258Z,13.67
2018-05-04T04:40:48.720Z,14.87
2018-05-04T04:43:16.169Z,9.30
2018-05-04T04:45:43.631Z,10.23
2018-05-04T04:48:11.075Z,12.70
2018-05-04T04:50:38.535Z,6.33
2018-05-04T04:53:06.010Z,11.67
2018-05-04T04:55:33.450Z,10.80
2018-05-04T04:58:00.927Z,8.97
2018-05-04T05:00:28.390Z,10.10
2018-05-04T05:02:55.829Z,9.97
2018-05-04T05:05:23.300Z,10.50
2018-05-04T05:07:50.745Z,14.80
2018-05-04T05:10:18.218Z,13.83
2018-05-04T05:12:45.654Z,10.90
2018-05-04T05:15:13.125Z,12.10
2018-05-04T05:17:40.577Z,10.50
2018-05-04T05:20:08.037Z,14.67
2018-05-04T05:22:35.499Z,7.97
2018-05-04T05:25:02.971Z,11.03
2018-05-04T05:27:31.279Z,10.17
2018-05-04T05:29:58.739Z,11.47
2018-05-04T05:32:26.182Z,10.67
2018-05-04T05:34:53.623Z,8.03
2018-05-04T05:37:21.881Z,10.80
2018-05-04T05:39:49.431Z,11.33
2018-05-04T05:42:16.900Z,9.60
2018-05-04T05:44:45.110Z,12.03
2018-05-04T05:47:12.578Z,9.27
2018-05-04T05:49:40.860Z,8.60
2018-05-04T05:52:08.327Z,12.77
2018-05-04T05:54:36.735Z,11.33
2018-05-04T05:57:04.172Z,9.17
2018-05-04T05:59:31.635Z,9.67
2018-05-04T06:01:59.084Z,12.17
2018-05-04T06:04:26.530Z,12.07
2018-05-04T06:06:54.023Z,10.63
2018-05-04T06:09:21.535Z,10.20
2018-05-04T06:11:49.703Z,10.87
2018-05-04T06:14:17.192Z,16.13
2018-05-04T06:16:44.643Z,16.40
2018-05-04T06:19:12.080Z,13.43
2018-05-04T06:21:39.562Z,14.50
2018-05-04T06:24:07.008Z,16.53
2018-05-04T06:26:34.463Z,11.20
2018-05-04T06:29:01.920Z,9.80
2018-05-04T06:31:30.169Z,11.50
2018-05-04T06:33:57.623Z,14.27
2018-05-04T06:36:25.072Z,10.87
2018-05-04T06:38:52.523Z,11.87
2018-05-04T06:41:19.975Z,15.23
2018-05-04T06:43:48.211Z,11.10
2018-05-04T06:46:15.689Z,11.17
2018-05-04T06:48:43.937Z,13.13
2018-05-04T06:51:11.410Z,10.53
2018-05-04T06:53:38.868Z,10.03
2018-05-04T06:56:06.313Z,9.87
2018-05-04T06:58:33.791Z,15.20
2018-05-04T07:01:02.018Z,14.60
2018-05-04T07:03:29.489Z,9.90
2018-05-04T07:05:56.931Z,13.57
2018-05-04T07:08:24.404Z,9.90
2018-05-04T07:10:51.888Z,12.90
2018-05-04T07:13:19.341Z,8.00
2018-05-04T07:15:46.804Z,8.67
2018-05-04T07:18:14.259Z,8.43
2018-05-04T07:20:42.736Z,11.17
2018-05-04T07:23:10.200Z,9.37
2018-05-04T07:25:37.672Z,9.30
2018-05-04T07:28:05.875Z,8.17
2018-05-04T07:30:33.328Z,7.57
2018-05-04T07:33:00.784Z,9.00
2018-05-04T07:35:28.222Z,8.50
2018-05-04T07:37:55.686Z,9.60
2018-05-04T07:40:23.164Z,8.70
2018-05-04T07:42:50.622Z,6.53
2018-05-04T07:45:18.083Z,9.83
2018-05-04T07:47:45.544Z,9.00
2018-05-04T07:50:13.012Z,12.80
2018-05-04T07:52:40.463Z,13.40
2018-05-04T07:55:07.933Z,14.33
2018-05-04T07:57:35.424Z,11.00
2018-05-04T08:00:03.691Z,7.70
2018-05-04T08:02:31.929Z,13.20
2018-05-04T08:04:59.404Z,13.40
2018-05-04T08:07:26.876Z,9.57
2018-05-04T08:09:55.108Z,6.03
2018-05-04T08:12:22.611Z,9.90
2018-05-04T08:14:50.114Z,7.60
2018-05-04T08:17:17.554Z,11.20
2018-05-04T08:19:45.031Z,14.82
2018-05-04T08:22:12.475Z,11.90
2018-05-04T08:24:39.963Z,8.95
2018-05-04T08:27:07.447Z,8.48
2018-05-04T08:29:34.973Z,10.52
2018-05-04T08:32:02.382Z,8.52
2018-05-04T08:34:30.595Z,8.55
2018-05-04T08:36:58.059Z,9.25
2018-05-04T08:39:25.521Z,9.32
2018-05-04T08:41:52.980Z,8.15
2018-05-04T08:44:20.475Z,9.48
2018-05-04T08:46:48.778Z,10.60
2018-05-04T08:49:16.175Z,8.60
2018-05-04T08:51:43.660Z,13.75
2018-05-04T08:54:11.137Z,11.32
2018-05-04T08:56:38.609Z,9.25
2018-05-04T08:59:06.048Z,6.90
2018-05-04T09:01:34.292Z,13.70
2018-05-04T09:04:01.735Z,16.52
2018-05-04T09:06:29.217Z,10.45
2018-05-04T09:08:56.668Z,11.40
2018-05-04T09:11:24.123Z,15.93
2018-05-04T09:13:51.592Z,11.48
2018-05-04T09:16:19.813Z,9.45
2018-05-04T09:18:47.267Z,5.90
2018-05-04T09:21:14.739Z,8.57
2018-05-04T09:23:42.201Z,13.50
2018-05-04T09:26:09.652Z,10.88
2018-05-04T09:28:37.123Z,17.52
2018-05-04T09:31:04.669Z,13.27
2018-05-04T09:33:32.852Z,15.15
2018-05-04T09:36:00.311Z,5.90
2018-05-04T09:38:27.787Z,6.15
2018-05-04T09:40:55.242Z,8.88
2018-05-04T09:43:22.741Z,13.52
2018-05-04T09:45:50.148Z,9.55
2018-05-04T09:48:17.599Z,6.37
2018-05-04T09:50:45.071Z,9.48
2018-05-04T09:53:12.540Z,9.68
2018-05-04T09:55:40.760Z,7.87
2018-05-04T09:58:08.231Z,13.80
2018-05-04T10:00:35.711Z,7.62
2018-05-04T10:03:03.177Z,6.22
2018-05-04T10:05:30.613Z,9.93
2018-05-04T10:07:58.081Z,6.05
2018-05-04T10:10:25.525Z,6.28
2018-05-04T10:12:52.986Z,9.30
2018-05-04T10:15:20.452Z,10.57
2018-05-04T10:17:47.926Z,8.00
2018-05-04T10:20:16.146Z,6.37
2018-05-04T10:22:43.613Z,8.98
2018-05-04T10:25:11.094Z,8.82
2018-05-04T10:27:38.558Z,6.10
2018-05-04T10:30:06.014Z,10.88
2018-05-04T10:32:33.460Z,8.63
2018-05-04T10:35:00.913Z,8.38
2018-05-04T10:37:28.419Z,8.00
2018-05-04T10:39:55.866Z,6.70
2018-05-04T10:42:24.086Z,7.68
2018-05-04T10:44:51.549Z,9.32
2018-05-04T10:47:19.000Z,6.72
2018-05-04T10:49:46.464Z,9.77
2018-05-04T10:52:13.927Z,7.18
2018-05-04T10:54:41.400Z,5.10
2018-05-04T10:57:08.903Z,6.15
2018-05-04T10:59:36.361Z,6.57
2018-05-04T11:02:03.818Z,6.12
2018-05-04T11:04:31.257Z,10.38
2018-05-04T11:06:58.699Z,4.15
2018-05-04T11:09:26.956Z,4.32
2018-05-04T11:11:54.529Z,6.18
2018-05-04T11:14:22.667Z,5.35
2018-05-04T11:16:50.137Z,6.93
2018-05-04T11:19:17.579Z,6.35
2018-05-04T11:21:45.315Z,6.18
2018-05-04T11:24:12.776Z,7.25
2018-05-04T11:26:40.263Z,7.12
2018-05-04T11:29:07.739Z,10.02
2018-05-04T11:31:35.223Z,6.25
2018-05-04T11:34:03.456Z,6.03
2018-05-04T11:36:30.898Z,8.00
2018-05-04T11:38:59.155Z,8.75
2018-05-04T11:41:27.354Z,8.23
2018-05-04T11:43:54.798Z,8.38
2018-05-04T11:46:22.275Z,285.08
2018-05-04T11:48:49.762Z,561.03
2018-05-04T11:51:18.013Z,503.90
2018-05-04T11:53:45.482Z,29.73
2018-05-04T11:56:12.957Z,13.62
2018-05-04T11:58:41.192Z,102.18
2018-05-04T12:01:08.680Z,16.02
2018-05-04T12:03:36.904Z,5.68
2018-05-04T12:06:04.355Z,7.18
2018-05-04T12:08:31.810Z,5.75
2018-05-04T12:10:59.291Z,9.25
2018-05-04T12:13:26.736Z,5.40
2018-05-04T12:15:54.194Z,8.23
2018-05-04T12:18:21.668Z,6.93
2018-05-04T12:20:49.134Z,3.47
2018-05-04T12:23:16.606Z,7.50
2018-05-04T12:25:44.106Z,6.93
2018-05-04T12:28:11.549Z,5.57
2018-05-04T12:30:39.019Z,9.85
2018-05-04T12:33:06.491Z,5.10
2018-05-04T12:35:33.965Z,7.22
2018-05-04T12:38:01.421Z,6.28
2018-05-04T12:40:28.906Z,7.82
2018-05-04T12:42:57.139Z,9.48
2018-05-04T12:45:24.613Z,7.25
2018-05-04T12:47:52.087Z,5.40
2018-05-04T12:50:20.308Z,4.60
2018-05-04T12:52:47.751Z,6.37
2018-05-04T12:55:15.203Z,5.12
2018-05-04T12:57:42.705Z,5.37
2018-05-04T13:00:10.215Z,5.57
2018-05-04T13:02:39.377Z,4.15
2018-05-04T13:05:06.956Z,3.00
2018-05-04T13:07:35.224Z,4.25
2018-05-04T13:10:03.500Z,5.07
2018-05-04T13:12:30.971Z,4.65
2018-05-04T13:14:59.253Z,5.00
2018-05-04T13:17:27.484Z,5.40
2018-05-04T13:19:54.950Z,4.10
2018-05-04T13:22:22.392Z,5.87
2018-05-04T13:24:49.901Z,5.72
2018-05-04T13:27:17.435Z,6.32
2018-05-04T13:29:44.882Z,2.53
2018-05-04T13:32:12.407Z,5.00
2018-05-04T13:34:39.982Z,4.30
2018-05-04T13:37:07.554Z,4.00
2018-05-04T13:39:35.085Z,3.65
2018-05-04T13:42:02.634Z,3.95
2018-05-04T13:44:30.650Z,8.05
2018-05-04T13:46:58.108Z,3.58
2018-05-04T13:49:25.574Z,4.28
2018-05-04T13:51:53.803Z,3.87
2018-05-04T13:54:21.246Z,3.72
2018-05-04T13:56:48.695Z,4.32
2018-05-04T13:59:16.171Z,6.07
2018-05-04T14:01:43.641Z,5.87
2018-05-04T14:04:11.142Z,3.60
2018-05-04T14:06:38.597Z,7.90
2018-05-04T14:09:06.807Z,4.65
2018-05-04T14:11:34.259Z,5.07
2018-05-04T14:14:01.746Z,4.45
2018-05-04T14:16:29.214Z,4.65
2018-05-04T14:18:56.701Z,5.37
2018-05-04T14:21:24.984Z,3.37
2018-05-04T14:23:53.197Z,2.65
2018-05-04T14:26:20.648Z,4.40
2018-05-04T14:28:48.107Z,7.57
2018-05-04T14:31:15.664Z,5.37
2018-05-04T14:33:43.095Z,5.62
2018-05-04T14:36:10.570Z,5.45
2018-05-04T14:38:38.035Z,5.32
2018-05-04T14:41:05.513Z,5.87
2018-05-04T14:43:32.981Z,4.53
2018-05-04T14:46:00.435Z,8.45
2018-05-04T14:48:27.952Z,4.93
2018-05-04T14:50:55.394Z,7.82
2018-05-04T14:53:23.611Z,6.10
2018-05-04T14:55:51.066Z,4.80
2018-05-04T14:58:18.521Z,5.43
2018-05-04T15:00:45.959Z,2.78
2018-05-04T15:03:13.439Z,5.85
2018-05-04T15:05:40.926Z,5.37
2018-05-04T15:08:08.391Z,4.15
2018-05-04T15:10:35.871Z,7.47
2018-05-04T15:13:04.084Z,4.15
2018-05-04T15:15:31.530Z,7.20
2018-05-04T15:17:59.071Z,4.07
2018-05-04T15:20:27.255Z,5.75
2018-05-04T15:22:54.725Z,6.62
2018-05-04T15:25:22.200Z,6.28
2018-05-04T15:27:49.685Z,9.00
2018-05-04T15:30:17.215Z,6.32
2018-05-04T15:32:44.680Z,7.43
2018-05-04T15:35:12.180Z,5.62
2018-05-04T15:37:39.660Z,6.47
2018-05-04T15:40:07.100Z,6.65
2018-05-04T15:42:34.556Z,10.35
2018-05-04T15:45:02.022Z,8.30
2018-05-04T15:47:29.468Z,5.05
2018-05-04T15:49:56.936Z,10.05
2018-05-04T15:52:24.386Z,10.50
2018-05-04T15:54:51.859Z,5.32
2018-05-04T15:57:19.322Z,21.80
2018-05-04T15:59:46.804Z,13.45
2018-05-04T16:02:14.264Z,49.47
2018-05-04T16:04:41.746Z,17.20
2018-05-04T16:07:09.972Z,93.85
2018-05-04T16:09:37.447Z,41.35
2018-05-04T16:12:05.033Z,13.23
2018-05-04T16:14:32.538Z,12.60
2018-05-04T16:17:00.018Z,44.40
2018-05-04T16:19:27.505Z,10.82
2018-05-04T16:21:55.029Z,16.30
2018-05-04T16:24:23.199Z,9.85
2018-05-04T16:26:50.661Z,5.37
2018-05-04T16:29:18.141Z,9.40
2018-05-04T16:31:46.379Z,3.53
2018-05-04T16:34:13.954Z,8.70
2018-05-04T16:36:41.392Z,7.70
2018-05-04T16:39:08.841Z,8.35
2018-05-04T16:41:36.323Z,2.90
2018-05-04T16:44:03.788Z,4.47
2018-05-04T16:46:36.961Z,5.72
2018-05-04T16:49:10.104Z,5.45
2018-05-04T16:51:38.352Z,6.68
2018-05-04T16:54:05.795Z,5.97
2018-05-04T16:56:33.257Z,6.00
2018-05-04T16:59:00.735Z,4.90
2018-05-04T17:01:28.181Z,3.20
2018-05-04T17:03:55.670Z,3.80
2018-05-04T17:06:23.896Z,5.43
2018-05-04T17:08:51.450Z,8.63
2018-05-04T17:11:18.820Z,6.10
2018-05-04T17:13:46.287Z,3.23
2018-05-04T17:16:13.749Z,4.50
2018-05-04T17:18:41.218Z,6.10
2018-05-04T17:21:09.430Z,5.40
2018-05-04T17:23:36.897Z,9.67
2018-05-04T17:26:04.358Z,5.27
2018-05-04T17:28:31.865Z,8.97
2018-05-04T17:30:59.317Z,6.23
2018-05-04T17:33:27.560Z,5.23
2018-05-04T17:35:55.000Z,5.57
2018-05-04T17:38:22.450Z,8.50
2018-05-04T17:40:49.950Z,6.43
2018-05-04T17:43:17.413Z,5.93
2018-05-04T17:45:44.872Z,6.43
2018-05-04T17:48:12.325Z,6.47
2018-05-04T17:50:39.767Z,6.27
2018-05-04T17:53:07.244Z,5.63
2018-05-04T17:55:34.713Z,8.73
2018-05-04T17:58:02.945Z,8.77
2018-05-04T18:00:30.424Z,15.00
2018-05-04T18:02:57.885Z,7.00
2018-05-04T18:05:25.331Z,4.73
2018-05-04T18:07:52.894Z,7.73
2018-05-04T18:10:20.445Z,6.83
2018-05-04T18:12:48.612Z,3.83
2018-05-04T18:15:16.095Z,7.03
2018-05-04T18:17:44.334Z,4.90
2018-05-04T18:20:11.774Z,4.50
2018-05-04T18:22:39.252Z,4.30
2018-05-04T18:25:06.697Z,7.13
2018-05-04T18:27:34.163Z,4.03
2018-05-04T18:30:02.465Z,5.87
2018-05-04T18:32:29.927Z,5.93
2018-05-04T18:34:57.372Z,6.23
2018-05-04T18:37:24.825Z,6.50
2018-05-04T18:39:52.281Z,3.87
2018-05-04T18:42:19.719Z,3.47
2018-05-04T18:44:47.188Z,6.30
2018-05-04T18:47:14.665Z,7.83
2018-05-04T18:49:42.912Z,5.73
2018-05-04T18:52:10.374Z,10.57
2018-05-04T18:54:37.850Z,7.03
2018-05-04T18:57:05.328Z,11.17
2018-05-04T18:59:33.544Z,8.13
2018-05-04T19:02:01.014Z,7.83
2018-05-04T19:04:28.494Z,6.13
2018-05-04T19:06:55.958Z,7.40
2018-05-04T19:09:23.397Z,7.70
2018-05-04T19:11:50.853Z,9.50
2018-05-04T19:14:18.335Z,6.27
2018-05-04T19:16:46.602Z,4.30
2018-05-04T19:19:14.038Z,7.30
2018-05-04T19:21:41.482Z,4.83
2018-05-04T19:24:08.961Z,4.93
2018-05-04T19:26:36.399Z,6.03
2018-05-04T19:29:04.064Z,5.17
2018-05-04T19:31:31.473Z,3.93
2018-05-04T19:33:58.919Z,7.40
2018-05-04T19:36:27.151Z,5.23
2018-05-04T19:38:54.614Z,8.57
2018-05-04T19:41:22.058Z,4.10
2018-05-04T19:43:49.540Z,5.47
2018-05-04T19:46:17.007Z,4.70
2018-05-04T19:48:44.454Z,5.93
2018-05-04T19:51:11.924Z,8.93
2018-05-04T19:53:39.391Z,7.83
2018-05-04T19:56:07.604Z,8.13
2018-05-04T19:58:35.409Z,7.93
2018-05-04T20:01:03.614Z,4.60
2018-05-04T20:03:31.844Z,6.80
2018-05-04T20:05:59.287Z,6.93
2018-05-04T20:08:26.748Z,7.03
2018-05-04T20:10:54.209Z,6.23
2018-05-04T20:13:21.845Z,8.03
2018-05-04T20:15:49.299Z,5.90
2018-05-04T20:18:17.055Z,5.23
2018-05-04T20:20:44.788Z,4.30
2018-05-04T20:23:13.028Z,6.33
2018-05-04T20:25:40.490Z,6.43
2018-05-04T20:28:07.950Z,5.17
2018-05-04T20:30:35.469Z,5.60
2018-05-04T20:33:02.933Z,7.20
2018-05-04T20:35:30.769Z,9.60
2018-05-04T20:37:59.216Z,9.00
2018-05-04T20:40:26.654Z,5.03
2018-05-04T20:42:54.133Z,10.43
2018-05-04T20:45:21.748Z,8.83
2018-05-04T20:47:49.189Z,10.77
2018-05-04T20:50:16.863Z,10.97
2018-05-04T20:52:44.434Z,5.20
2018-05-04T20:55:12.060Z,10.13
2018-05-04T20:57:40.271Z,9.20
2018-05-04T21:00:07.854Z,8.33
2018-05-04T21:02:35.344Z,7.47
2018-05-04T21:05:03.669Z,5.03
2018-05-04T21:07:31.115Z,9.33
2018-05-04T21:09:58.629Z,7.37
2018-05-04T21:12:26.842Z,9.93
2018-05-04T21:14:54.647Z,9.73
2018-05-04T21:17:22.489Z,10.53
2018-05-04T21:19:50.051Z,9.77
2018-05-04T21:22:17.445Z,7.60
2018-05-04T21:24:44.915Z,8.43
2018-05-04T21:27:13.261Z,7.83
2018-05-04T21:29:40.899Z,10.10
2018-05-04T21:32:08.542Z,10.27
2018-05-04T21:34:36.017Z,11.20
2018-05-04T21:37:03.494Z,5.67
2018-05-04T21:39:30.971Z,9.53
2018-05-04T21:41:58.411Z,9.10
2018-05-04T21:44:25.865Z,8.50
2018-05-04T21:46:54.152Z,6.90
2018-05-04T21:49:21.623Z,7.70
2018-05-04T21:51:50.136Z,10.23
2018-05-04T21:54:17.607Z,6.93
2018-05-04T21:56:45.076Z,6.53
2018-05-04T21:59:12.624Z,8.13
2018-05-04T22:01:40.009Z,8.17
2018-05-04T22:04:07.481Z,8.93
2018-05-04T22:06:34.984Z,7.17
2018-05-04T22:09:02.486Z,10.27
2018-05-04T22:11:29.950Z,10.47
2018-05-04T22:13:57.412Z,7.60
2018-05-04T22:16:24.861Z,9.57
2018-05-04T22:18:52.327Z,5.17
2018-05-04T22:21:19.769Z,6.90
2018-05-04T22:23:47.221Z,8.80
2018-05-04T22:26:14.666Z,10.40
2018-05-04T22:28:42.112Z,11.43
2018-05-04T22:31:09.623Z,6.93
2018-05-04T22:33:37.831Z,7.77
2018-05-04T22:36:05.270Z,13.10
2018-05-04T22:38:33.673Z,9.80
2018-05-04T22:41:01.135Z,5.63
2018-05-04T22:43:28.594Z,7.13
2018-05-04T22:45:56.054Z,10.57
2018-05-04T22:48:23.515Z,7.17
2018-05-04T22:50:50.964Z,9.33
2018-05-04T22:53:18.508Z,8.60
2018-05-04T22:55:45.964Z,6.37
2018-05-04T22:58:13.405Z,7.07
2018-05-04T23:00:40.847Z,6.37
2018-05-04T23:03:09.150Z,7.87
2018-05-04T23:05:36.603Z,6.13
2018-05-04T23:08:04.094Z,8.17
2018-05-04T23:10:31.547Z,9.20
2018-05-04T23:12:59.012Z,9.57
2018-05-04T23:15:26.472Z,7.23
2018-05-04T23:17:53.931Z,6.23
2018-05-04T23:20:21.397Z,8.23
2018-05-04T23:22:48.856Z,7.50
2018-05-04T23:25:16.329Z,8.90
2018-05-04T23:27:44.535Z,4.60
2018-05-04T23:30:12.006Z,6.17
2018-05-04T23:32:39.446Z,7.90
2018-05-04T23:35:06.926Z,7.73
2018-05-04T23:37:34.361Z,7.77
2018-05-04T23:40:01.824Z,7.00
2018-05-04T23:42:29.297Z,7.27
2018-05-04T23:44:56.754Z,6.80
2018-05-04T23:47:24.207Z,5.00
2018-05-04T23:49:51.665Z,11.20
2018-05-04T23:52:19.172Z,5.53
2018-05-04T23:54:47.412Z,5.53
2018-05-04T23:57:14.863Z,6.33
2018-05-04T23:59:42.324Z,5.03
